createdAt,value
2017-04-10T00:00:00.970Z,1015.6
2017-04-10T00:01:10.573Z,1015.54
2017-04-10T00:02:20.235Z,1015.56
2017-04-10T00:03:30.473Z,1015.52
2017-04-10T00:04:40.709Z,1015.49
2017-04-10T00:05:50.950Z,1015.49
2017-04-10T00:07:00.869Z,1015.5
2017-04-10T00:08:10.486Z,1015.49
2017-04-10T00:09:20.736Z,1015.47
2017-04-10T00:10:31.005Z,1015.44
2017-04-10T00:11:40.616Z,1015.42
2017-04-10T00:12:50.849Z,1015.37
2017-04-10T00:14:00.457Z,1015.42
2017-04-10T00:15:10.369Z,1015.34
2017-04-10T00:16:20.292Z,1015.31
2017-04-10T00:17:30.218Z,1015.28
2017-04-10T00:18:40.447Z,1015.26
2017-04-10T00:19:50.369Z,1015.23
2017-04-10T00:21:00.608Z,1015.23
2017-04-10T00:22:10.528Z,1015.21
2017-04-10T00:23:20.442Z,1015.13
2017-04-10T00:24:30.412Z,1015.11
2017-04-10T00:25:40.669Z,1015.13
2017-04-10T00:26:50.278Z,1015.02
2017-04-10T00:28:00.210Z,1015.02
2017-04-10T00:29:10.136Z,1014.97
2017-04-10T00:30:20.376Z,1014.95
2017-04-10T00:31:30.290Z,1014.92
2017-04-10T00:32:40.524Z,1014.91
2017-04-10T00:33:50.767Z,1014.87
2017-04-10T00:35:01.006Z,1014.87
2017-04-10T00:36:11.243Z,1014.87
2017-04-10T00:37:21.169Z,1014.84
2017-04-10T00:38:31.101Z,1014.83
2017-04-10T00:39:40.723Z,1014.83
2017-04-10T00:40:50.333Z,1014.82
2017-04-10T00:42:00.573Z,1014.77
2017-04-10T00:43:10.804Z,1014.79
2017-04-10T00:44:20.728Z,1014.76
2017-04-10T00:45:30.962Z,1014.76
2017-04-10T00:46:41.206Z,1014.76
2017-04-10T00:47:51.453Z,1014.74
2017-04-10T00:49:01.707Z,1014.72
2017-04-10T00:50:11.950Z,1014.7
2017-04-10T00:51:21.872Z,1014.7
2017-04-10T00:52:32.098Z,1014.69
2017-04-10T00:53:41.717Z,1014.71
2017-04-10T00:54:51.973Z,1014.63
2017-04-10T00:56:02.213Z,1014.64
2017-04-10T00:57:12.138Z,1014.59
2017-04-10T00:58:22.061Z,1014.61
2017-04-10T00:59:31.373Z,1014.58
2017-04-10T01:00:41.606Z,1014.58
2017-04-10T01:01:51.840Z,1014.56
2017-04-10T01:03:01.764Z,1014.56
2017-04-10T01:04:11.699Z,1014.52
2017-04-10T01:05:21.623Z,1014.57
2017-04-10T01:06:31.542Z,1014.54
2017-04-10T01:07:40.874Z,1014.48
2017-04-10T01:08:50.489Z,1014.51
2017-04-10T01:10:00.744Z,1014.5
2017-04-10T01:11:10.666Z,1014.46
2017-04-10T01:12:20.905Z,1014.43
2017-04-10T01:13:30.865Z,1014.4
2017-04-10T01:14:40.483Z,1014.39
2017-04-10T01:15:50.722Z,1014.37
2017-04-10T01:17:00.959Z,1014.37
2017-04-10T01:18:10.893Z,1014.36
2017-04-10T01:19:21.133Z,1014.34
2017-04-10T01:20:31.376Z,1014.36
2017-04-10T01:21:41.617Z,1014.35
2017-04-10T01:22:51.544Z,1014.34
2017-04-10T01:24:01.781Z,1014.33
2017-04-10T01:25:11.384Z,1014.3
2017-04-10T01:26:21.629Z,1014.27
2017-04-10T01:27:31.865Z,1014.26
2017-04-10T01:28:41.474Z,1014.24
2017-04-10T01:29:51.709Z,1014.23
2017-04-10T01:31:01.315Z,1014.21
2017-04-10T01:32:11.571Z,1014.23
2017-04-10T01:33:21.188Z,1014.22
2017-04-10T01:34:30.813Z,1014.15
2017-04-10T01:35:40.736Z,1014.14
2017-04-10T01:36:50.972Z,1014.1
2017-04-10T01:38:00.901Z,1014.08
2017-04-10T01:39:11.132Z,1014.1
2017-04-10T01:40:21.090Z,1014.05
2017-04-10T01:41:31.331Z,1014.03
2017-04-10T01:42:41.559Z,1014.01
2017-04-10T01:43:51.786Z,1014
2017-04-10T01:45:02.025Z,1013.98
2017-04-10T01:46:12.282Z,1013.94
2017-04-10T01:47:22.204Z,1013.93
2017-04-10T01:48:32.137Z,1013.9
2017-04-10T01:49:42.064Z,1013.89
2017-04-10T01:50:51.981Z,1013.86
2017-04-10T01:52:01.930Z,1013.86
2017-04-10T01:53:12.166Z,1013.8
2017-04-10T01:54:22.402Z,1013.78
2017-04-10T01:55:32.636Z,1013.8
2017-04-10T01:56:42.557Z,1013.77
2017-04-10T01:57:52.474Z,1013.78
2017-04-10T01:59:02.086Z,1013.71
2017-04-10T02:00:12.012Z,1013.75
2017-04-10T02:01:22.258Z,1013.74
2017-04-10T02:02:32.492Z,1013.75
2017-04-10T02:03:42.419Z,1013.72
2017-04-10T02:04:52.341Z,1013.7
2017-04-10T02:06:02.576Z,1013.64
2017-04-10T02:07:12.494Z,1013.65
2017-04-10T02:08:22.418Z,1013.58
2017-04-10T02:09:32.646Z,1013.58
2017-04-10T02:10:42.590Z,1013.52
2017-04-10T02:11:52.197Z,1013.53
2017-04-10T02:13:01.810Z,1013.5
2017-04-10T02:14:11.742Z,1013.51
2017-04-10T02:15:22.003Z,1013.46
2017-04-10T02:16:31.923Z,1013.42
2017-04-10T02:17:42.154Z,1013.4
2017-04-10T02:18:52.077Z,1013.39
2017-04-10T02:20:01.996Z,1013.32
2017-04-10T02:21:11.929Z,1013.35
2017-04-10T02:22:22.162Z,1013.33
2017-04-10T02:23:32.091Z,1013.3
2017-04-10T02:24:42.329Z,1013.28
2017-04-10T02:25:52.252Z,1013.25
2017-04-10T02:27:02.478Z,1013.21
2017-04-10T02:28:12.399Z,1013.19
2017-04-10T02:29:22.329Z,1013.14
2017-04-10T02:30:31.943Z,1013.19
2017-04-10T02:31:42.181Z,1013.17
2017-04-10T02:32:52.108Z,1013.17
2017-04-10T02:34:02.386Z,1013.15
2017-04-10T02:35:12.310Z,1013.1
2017-04-10T02:36:22.553Z,1013.12
2017-04-10T02:37:32.482Z,1013.06
2017-04-10T02:38:42.096Z,1013.05
2017-04-10T02:39:52.014Z,1013
2017-04-10T02:41:01.936Z,1013.01
2017-04-10T02:42:11.857Z,1012.99
2017-04-10T02:43:21.471Z,1012.92
2017-04-10T02:44:31.395Z,1012.94
2017-04-10T02:45:41.324Z,1012.93
2017-04-10T02:46:50.941Z,1012.9
2017-04-10T02:48:01.211Z,1012.92
2017-04-10T02:49:11.138Z,1012.89
2017-04-10T02:50:21.057Z,1012.91
2017-04-10T02:51:31.290Z,1012.88
2017-04-10T02:52:41.531Z,1012.86
2017-04-10T02:53:51.761Z,1012.85
2017-04-10T02:55:02.002Z,1012.89
2017-04-10T02:56:11.926Z,1012.85
2017-04-10T02:57:21.850Z,1012.84
2017-04-10T02:58:32.087Z,1012.79
2017-04-10T02:59:42.329Z,1012.8
2017-04-10T03:00:52.564Z,1012.76
2017-04-10T03:02:02.492Z,1012.74
2017-04-10T03:03:12.421Z,1012.75
2017-04-10T03:04:22.347Z,1012.68
2017-04-10T03:05:32.281Z,1012.67
2017-04-10T03:06:42.208Z,1012.61
2017-04-10T03:07:51.817Z,1012.61
2017-04-10T03:09:02.061Z,1012.56
2017-04-10T03:10:11.990Z,1012.54
2017-04-10T03:11:22.223Z,1012.51
2017-04-10T03:12:31.518Z,1012.51
2017-04-10T03:13:41.755Z,1012.44
2017-04-10T03:14:51.678Z,1012.45
2017-04-10T03:16:01.602Z,1012.43
2017-04-10T03:17:11.530Z,1012.39
2017-04-10T03:18:21.135Z,1012.34
2017-04-10T03:19:31.373Z,1012.32
2017-04-10T03:20:41.610Z,1012.28
2017-04-10T03:21:51.530Z,1012.27
2017-04-10T03:23:01.448Z,1012.24
2017-04-10T03:24:11.384Z,1012.22
2017-04-10T03:25:21.622Z,1012.26
2017-04-10T03:26:31.855Z,1012.24
2017-04-10T03:27:41.773Z,1012.19
2017-04-10T03:28:52.004Z,1012.19
2017-04-10T03:30:01.932Z,1012.16
2017-04-10T03:31:11.862Z,1012.18
2017-04-10T03:32:22.102Z,1012.21
2017-04-10T03:33:32.332Z,1012.21
2017-04-10T03:34:42.568Z,1012.19
2017-04-10T03:35:52.806Z,1012.17
2017-04-10T03:37:03.041Z,1012.19
2017-04-10T03:38:12.658Z,1012.15
2017-04-10T03:39:22.269Z,1012.16
2017-04-10T03:40:32.203Z,1012.14
2017-04-10T03:41:41.506Z,1012.13
2017-04-10T03:42:51.738Z,1012.08
2017-04-10T03:44:01.976Z,1012.08
2017-04-10T03:45:12.214Z,1012.06
2017-04-10T03:46:22.448Z,1012.05
2017-04-10T03:47:32.683Z,1012.05
2017-04-10T03:48:42.917Z,1012.02
2017-04-10T03:49:53.150Z,1011.98
2017-04-10T03:51:03.071Z,1011.98
2017-04-10T03:52:13.307Z,1011.96
2017-04-10T03:53:23.555Z,1011.95
2017-04-10T03:54:33.477Z,1011.96
2017-04-10T03:55:43.398Z,1011.94
2017-04-10T03:56:53.332Z,1011.95
2017-04-10T03:58:03.253Z,1011.92
2017-04-10T03:59:13.180Z,1011.84
2017-04-10T04:00:23.438Z,1011.86
2017-04-10T04:01:33.369Z,1011.84
2017-04-10T04:02:42.983Z,1011.87
2017-04-10T04:03:53.216Z,1011.86
2017-04-10T04:05:03.151Z,1011.85
2017-04-10T04:06:13.386Z,1011.83
2017-04-10T04:07:23.307Z,1011.82
2017-04-10T04:08:32.913Z,1011.83
2017-04-10T04:09:42.839Z,1011.79
2017-04-10T04:10:52.762Z,1011.79
2017-04-10T04:12:02.682Z,1011.8
2017-04-10T04:13:11.976Z,1011.78
2017-04-10T04:14:22.214Z,1011.8
2017-04-10T04:15:32.138Z,1011.76
2017-04-10T04:16:42.065Z,1011.78
2017-04-10T04:17:52.295Z,1011.76
2017-04-10T04:19:02.520Z,1011.76
2017-04-10T04:20:12.753Z,1011.75
2017-04-10T04:21:22.985Z,1011.72
2017-04-10T04:22:32.910Z,1011.73
2017-04-10T04:23:42.876Z,1011.68
2017-04-10T04:24:53.107Z,1011.72
2017-04-10T04:26:02.715Z,1011.71
2017-04-10T04:27:12.952Z,1011.69
2017-04-10T04:28:22.249Z,1011.66
2017-04-10T04:29:32.163Z,1011.65
2017-04-10T04:30:42.406Z,1011.66
2017-04-10T04:31:52.328Z,1011.63
2017-04-10T04:33:02.247Z,1011.59
2017-04-10T04:34:12.479Z,1011.59
2017-04-10T04:35:22.709Z,1011.6
2017-04-10T04:36:32.630Z,1011.53
2017-04-10T04:37:42.863Z,1011.55
2017-04-10T04:38:53.106Z,1011.52
2017-04-10T04:40:03.339Z,1011.55
2017-04-10T04:41:13.259Z,1011.53
2017-04-10T04:42:23.525Z,1011.5
2017-04-10T04:43:33.448Z,1011.51
2017-04-10T04:44:43.681Z,1011.5
2017-04-10T04:45:53.605Z,1011.49
2017-04-10T04:47:03.835Z,1011.45
2017-04-10T04:48:13.745Z,1011.48
2017-04-10T04:49:23.352Z,1011.45
2017-04-10T04:50:33.588Z,1011.44
2017-04-10T04:51:43.517Z,1011.48
2017-04-10T04:52:53.759Z,1011.44
2017-04-10T04:54:03.371Z,1011.42
2017-04-10T04:55:13.300Z,1011.39
2017-04-10T04:56:23.534Z,1011.41
2017-04-10T04:57:33.765Z,1011.38
2017-04-10T04:58:44.008Z,1011.4
2017-04-10T04:59:53.972Z,1011.37
2017-04-10T05:01:04.209Z,1011.37
2017-04-10T05:02:14.448Z,1011.39
2017-04-10T05:03:24.683Z,1011.33
2017-04-10T05:04:34.610Z,1011.34
2017-04-10T05:05:44.840Z,1011.31
2017-04-10T05:06:55.081Z,1011.29
2017-04-10T05:08:05.315Z,1011.33
2017-04-10T05:09:15.544Z,1011.3
2017-04-10T05:10:25.469Z,1011.31
2017-04-10T05:11:35.723Z,1011.29
2017-04-10T05:12:45.977Z,1011.32
2017-04-10T05:13:56.204Z,1011.32
2017-04-10T05:15:06.437Z,1011.28
2017-04-10T05:16:16.362Z,1011.29
2017-04-10T05:17:26.598Z,1011.26
2017-04-10T05:18:36.827Z,1011.27
2017-04-10T05:19:46.434Z,1011.27
2017-04-10T05:20:56.669Z,1011.3
2017-04-10T05:22:06.271Z,1011.22
2017-04-10T05:23:16.188Z,1011.26
2017-04-10T05:24:26.421Z,1011.19
2017-04-10T05:25:36.035Z,1011.24
2017-04-10T05:26:45.959Z,1011.23
2017-04-10T05:27:55.880Z,1011.21
2017-04-10T05:29:05.800Z,1011.18
2017-04-10T05:30:16.054Z,1011.2
2017-04-10T05:31:26.285Z,1011.17
2017-04-10T05:32:36.518Z,1011.19
2017-04-10T05:33:46.442Z,1011.16
2017-04-10T05:34:56.681Z,1011.14
2017-04-10T05:36:06.910Z,1011.19
2017-04-10T05:37:17.144Z,1011.15
2017-04-10T05:38:27.371Z,1011.15
2017-04-10T05:39:37.606Z,1011.1
2017-04-10T05:40:47.525Z,1011.12
2017-04-10T05:41:56.816Z,1011.08
2017-04-10T05:43:06.736Z,1011.12
2017-04-10T05:44:16.343Z,1011.08
2017-04-10T05:45:26.267Z,1011.03
2017-04-10T05:46:36.496Z,1011
2017-04-10T05:47:46.414Z,1011.02
2017-04-10T05:48:56.693Z,1011
2017-04-10T05:50:06.929Z,1011.02
2017-04-10T05:51:17.166Z,1010.97
2017-04-10T05:52:27.450Z,1010.96
2017-04-10T05:53:37.058Z,1010.95
2017-04-10T05:54:47.296Z,1010.92
2017-04-10T05:55:57.534Z,1010.95
2017-04-10T05:57:07.772Z,1010.91
2017-04-10T05:58:18.006Z,1010.89
2017-04-10T05:59:28.231Z,1010.89
2017-04-10T06:00:38.466Z,1010.87
2017-04-10T06:01:48.694Z,1010.86
2017-04-10T06:02:58.926Z,1010.85
2017-04-10T06:04:09.162Z,1010.82
2017-04-10T06:05:19.129Z,1010.85
2017-04-10T06:06:29.376Z,1010.81
2017-04-10T06:07:39.313Z,1010.81
2017-04-10T06:08:49.547Z,1010.74
2017-04-10T06:09:59.468Z,1010.77
2017-04-10T06:11:09.708Z,1010.77
2017-04-10T06:12:19.620Z,1010.8
2017-04-10T06:13:29.544Z,1010.74
2017-04-10T06:14:39.465Z,1010.75
2017-04-10T06:15:49.697Z,1010.64
2017-04-10T06:16:59.929Z,1010.65
2017-04-10T06:18:10.168Z,1010.66
2017-04-10T06:19:20.400Z,1010.64
2017-04-10T06:20:30.627Z,1010.61
2017-04-10T06:21:40.878Z,1010.59
2017-04-10T06:22:50.797Z,1010.57
2017-04-10T06:24:00.408Z,1010.48
2017-04-10T06:25:10.652Z,1010.47
2017-04-10T06:26:20.890Z,1010.43
2017-04-10T06:27:31.123Z,1010.46
2017-04-10T06:28:41.359Z,1010.41
2017-04-10T06:29:51.273Z,1010.44
2017-04-10T06:31:01.522Z,1010.4
2017-04-10T06:32:11.759Z,1010.43
2017-04-10T06:33:21.995Z,1010.39
2017-04-10T06:34:32.232Z,1010.4
2017-04-10T06:35:42.156Z,1010.34
2017-04-10T06:36:52.071Z,1010.38
2017-04-10T06:38:02.306Z,1010.36
2017-04-10T06:39:12.222Z,1010.39
2017-04-10T06:40:22.452Z,1010.36
2017-04-10T06:41:32.377Z,1010.32
2017-04-10T06:42:42.606Z,1010.29
2017-04-10T06:43:52.215Z,1010.27
2017-04-10T06:45:02.135Z,1010.26
2017-04-10T06:46:12.383Z,1010.22
2017-04-10T06:47:22.623Z,1010.26
2017-04-10T06:48:32.545Z,1010.19
2017-04-10T06:49:42.779Z,1010.23
2017-04-10T06:50:53.014Z,1010.22
2017-04-10T06:52:02.626Z,1010.2
2017-04-10T06:53:12.257Z,1010.18
2017-04-10T06:54:22.175Z,1010.19
2017-04-10T06:55:32.408Z,1010.17
2017-04-10T06:56:42.328Z,1010.16
2017-04-10T06:57:52.563Z,1010.15
2017-04-10T06:59:02.792Z,1010.15
2017-04-10T07:00:12.716Z,1010.19
2017-04-10T07:01:22.947Z,1010.14
2017-04-10T07:02:33.184Z,1010.18
2017-04-10T07:03:42.803Z,1010.19
2017-04-10T07:04:52.731Z,1010.21
2017-04-10T07:06:02.965Z,1010.14
2017-04-10T07:07:13.214Z,1010.13
2017-04-10T07:08:23.440Z,1010.14
2017-04-10T07:09:33.672Z,1010.13
2017-04-10T07:10:43.912Z,1010.09
2017-04-10T07:11:54.152Z,1010.12
2017-04-10T07:13:03.764Z,1010.19
2017-04-10T07:14:13.693Z,1010.16
2017-04-10T07:15:23.609Z,1010.16
2017-04-10T07:16:33.218Z,1010.12
2017-04-10T07:17:43.455Z,1010.14
2017-04-10T07:18:53.377Z,1010.16
2017-04-10T07:20:03.315Z,1010.16
2017-04-10T07:21:13.572Z,1010.14
2017-04-10T07:22:23.807Z,1010.1
2017-04-10T07:23:33.421Z,1010.11
2017-04-10T07:24:43.653Z,1010.09
2017-04-10T07:25:53.574Z,1010.1
2017-04-10T07:27:03.814Z,1010.1
2017-04-10T07:28:13.733Z,1010.09
2017-04-10T07:29:24.004Z,1010.04
2017-04-10T07:30:34.243Z,1010.04
2017-04-10T07:31:44.481Z,1010.03
2017-04-10T07:32:54.716Z,1010.02
2017-04-10T07:34:04.949Z,1009.99
2017-04-10T07:35:15.182Z,1009.98
2017-04-10T07:36:25.109Z,1009.99
2017-04-10T07:37:35.347Z,1009.96
2017-04-10T07:38:45.582Z,1009.99
2017-04-10T07:39:55.809Z,1009.95
2017-04-10T07:41:06.049Z,1009.96
2017-04-10T07:42:16.284Z,1009.92
2017-04-10T07:43:26.524Z,1009.94
2017-04-10T07:44:36.443Z,1009.99
2017-04-10T07:45:46.372Z,1009.99
2017-04-10T07:46:56.608Z,1009.98
2017-04-10T07:48:06.844Z,1009.94
2017-04-10T07:49:16.483Z,1009.92
2017-04-10T07:50:26.721Z,1009.93
2017-04-10T07:51:36.965Z,1009.86
2017-04-10T07:52:46.887Z,1009.88
2017-04-10T07:53:56.825Z,1009.91
2017-04-10T07:55:06.740Z,1009.86
2017-04-10T07:56:16.667Z,1009.88
2017-04-10T07:57:26.595Z,1009.93
2017-04-10T07:58:36.828Z,1009.96
2017-04-10T07:59:46.749Z,1009.88
2017-04-10T08:00:56.982Z,1009.9
2017-04-10T08:02:06.903Z,1009.89
2017-04-10T08:03:16.519Z,1009.83
2017-04-10T08:04:26.752Z,1009.82
2017-04-10T08:05:36.989Z,1009.82
2017-04-10T08:06:46.911Z,1009.84
2017-04-10T08:07:57.141Z,1009.83
2017-04-10T08:09:07.065Z,1009.82
2017-04-10T08:10:17.312Z,1009.87
2017-04-10T08:11:27.294Z,1009.89
2017-04-10T08:12:37.217Z,1009.83
2017-04-10T08:13:47.144Z,1009.8
2017-04-10T08:14:57.066Z,1009.78
2017-04-10T08:16:06.993Z,1009.74
2017-04-10T08:17:16.911Z,1009.79
2017-04-10T08:18:26.836Z,1009.73
2017-04-10T08:19:36.447Z,1009.79
2017-04-10T08:20:46.686Z,1009.81
2017-04-10T08:21:56.608Z,1009.76
2017-04-10T08:23:06.548Z,1009.76
2017-04-10T08:24:16.476Z,1009.72
2017-04-10T08:25:26.714Z,1009.69
2017-04-10T08:26:36.949Z,1009.78
2017-04-10T08:27:47.186Z,1009.79
2017-04-10T08:28:57.425Z,1009.77
2017-04-10T08:30:07.671Z,1009.77
2017-04-10T08:31:17.901Z,1009.82
2017-04-10T08:32:28.137Z,1009.79
2017-04-10T08:33:37.742Z,1009.76
2017-04-10T08:34:47.667Z,1009.7
2017-04-10T08:35:57.590Z,1009.8
2017-04-10T08:37:07.215Z,1009.77
2017-04-10T08:38:17.441Z,1009.72
2017-04-10T08:39:27.673Z,1009.78
2017-04-10T08:40:37.618Z,1009.67
2017-04-10T08:41:47.857Z,1009.68
2017-04-10T08:42:57.778Z,1009.67
2017-04-10T08:44:08.023Z,1009.63
2017-04-10T08:45:18.261Z,1009.63
2017-04-10T08:46:28.504Z,1009.61
2017-04-10T08:47:38.426Z,1009.63
2017-04-10T08:48:48.356Z,1009.64
2017-04-10T08:49:58.282Z,1009.68
2017-04-10T08:51:07.577Z,1009.69
2017-04-10T08:52:17.179Z,1009.59
2017-04-10T08:53:27.417Z,1009.64
2017-04-10T08:54:37.344Z,1009.69
2017-04-10T08:55:47.271Z,1009.61
2017-04-10T08:56:57.511Z,1009.65
2017-04-10T08:58:07.127Z,1009.65
2017-04-10T08:59:17.044Z,1009.7
2017-04-10T09:00:26.651Z,1009.62
2017-04-10T09:01:36.574Z,1009.7
2017-04-10T09:02:46.492Z,1009.71
2017-04-10T09:03:56.416Z,1009.71
2017-04-10T09:05:06.661Z,1009.63
2017-04-10T09:06:16.597Z,1009.64
2017-04-10T09:07:26.515Z,1009.55
2017-04-10T09:08:36.748Z,1009.57
2017-04-10T09:09:46.670Z,1009.56
2017-04-10T09:10:56.589Z,1009.51
2017-04-10T09:12:06.194Z,1009.55
2017-04-10T09:13:16.432Z,1009.48
2017-04-10T09:14:26.408Z,1009.47
2017-04-10T09:15:36.647Z,1009.51
2017-04-10T09:16:46.257Z,1009.46
2017-04-10T09:17:56.483Z,1009.53
2017-04-10T09:19:06.713Z,1009.45
2017-04-10T09:20:16.947Z,1009.45
2017-04-10T09:21:26.868Z,1009.46
2017-04-10T09:22:36.787Z,1009.45
2017-04-10T09:23:46.392Z,1009.47
2017-04-10T09:24:56.626Z,1009.47
2017-04-10T09:26:06.553Z,1009.52
2017-04-10T09:27:16.480Z,1009.41
2017-04-10T09:28:26.723Z,1009.38
2017-04-10T09:29:36.643Z,1009.37
2017-04-10T09:30:46.561Z,1009.34
2017-04-10T09:31:56.793Z,1009.33
2017-04-10T09:33:06.409Z,1009.32
2017-04-10T09:34:16.645Z,1009.27
2017-04-10T09:35:26.572Z,1009.36
2017-04-10T09:36:35.874Z,1009.3
2017-04-10T09:37:46.112Z,1009.32
2017-04-10T09:38:55.721Z,1009.32
2017-04-10T09:40:05.957Z,1009.3
2017-04-10T09:41:15.874Z,1009.27
2017-04-10T09:42:25.795Z,1009.29
2017-04-10T09:43:35.714Z,1009.32
2017-04-10T09:44:45.636Z,1009.33
2017-04-10T09:45:55.554Z,1009.18
2017-04-10T09:47:05.480Z,1009.28
2017-04-10T09:48:15.088Z,1009.24
2017-04-10T09:49:25.011Z,1009.24
2017-04-10T09:50:34.933Z,1009.23
2017-04-10T09:51:44.540Z,1009.29
2017-04-10T09:52:54.459Z,1009.23
2017-04-10T09:54:04.378Z,1009.22
2017-04-10T09:55:14.608Z,1009.26
2017-04-10T09:56:24.526Z,1009.23
2017-04-10T09:57:34.758Z,1009.34
2017-04-10T09:58:45.020Z,1009.27
2017-04-10T09:59:55.255Z,1009.18
2017-04-10T10:01:05.496Z,1009.31
2017-04-10T10:02:15.760Z,1009.31
2017-04-10T10:03:25.061Z,1009.28
2017-04-10T10:04:35.307Z,1009.28
2017-04-10T10:05:44.920Z,1009.22
2017-04-10T10:06:55.155Z,1009.32
2017-04-10T10:08:05.395Z,1009.27
2017-04-10T10:09:15.017Z,1009.24
2017-04-10T10:10:25.252Z,1009.16
2017-04-10T10:11:35.181Z,1009.21
2017-04-10T10:12:45.415Z,1009.25
2017-04-10T10:13:55.022Z,1009.28
2017-04-10T10:15:04.636Z,1009.29
2017-04-10T10:16:14.578Z,1009.32
2017-04-10T10:17:24.817Z,1009.24
2017-04-10T10:18:34.430Z,1009.22
2017-04-10T10:19:44.042Z,1009.33
2017-04-10T10:20:54.274Z,1009.29
2017-04-10T10:22:04.194Z,1009.35
2017-04-10T10:23:14.115Z,1009.37
2017-04-10T10:24:24.037Z,1009.35
2017-04-10T10:25:33.954Z,1009.46
2017-04-10T10:26:43.875Z,1009.38
2017-04-10T10:27:53.799Z,1009.43
2017-04-10T10:29:04.032Z,1009.54
2017-04-10T10:30:14.011Z,1009.33
2017-04-10T10:31:23.931Z,1009.35
2017-04-10T10:32:33.861Z,1009.36
2017-04-10T10:33:43.784Z,1009.31
2017-04-10T10:34:53.705Z,1009.29
2017-04-10T10:36:03.310Z,1009.23
2017-04-10T10:37:12.603Z,1009.3
2017-04-10T10:38:22.838Z,1009.22
2017-04-10T10:39:33.072Z,1009.24
2017-04-10T10:40:43.037Z,1009.2
2017-04-10T10:41:52.961Z,1009.15
2017-04-10T10:43:02.882Z,1009.26
2017-04-10T10:44:12.181Z,1009.15
2017-04-10T10:45:21.792Z,1009.21
2017-04-10T10:46:32.062Z,1009.26
2017-04-10T10:47:41.678Z,1009.25
2017-04-10T10:48:51.278Z,1009.26
2017-04-10T10:50:00.886Z,1009.23
2017-04-10T10:51:09.871Z,1009.23
2017-04-10T10:52:19.788Z,1009.25
2017-04-10T10:53:29.713Z,1009.24
2017-04-10T10:54:39.324Z,1009.23
2017-04-10T10:55:48.936Z,1009.17
2017-04-10T10:56:58.857Z,1009.29
2017-04-10T10:58:07.877Z,1009.24
2017-04-10T10:59:18.112Z,1009.22
2017-04-10T11:00:28.345Z,1009.22
2017-04-10T11:01:37.962Z,1009.28
2017-04-10T11:02:48.194Z,1009.34
2017-04-10T11:03:58.436Z,1009.28
2017-04-10T11:05:08.069Z,1009.33
2017-04-10T11:06:17.979Z,1009.36
2017-04-10T11:07:27.603Z,1009.34
2017-04-10T11:08:37.529Z,1009.27
2017-04-10T11:09:47.767Z,1009.33
2017-04-10T11:10:57.691Z,1009.36
2017-04-10T11:12:06.991Z,1009.34
2017-04-10T11:13:16.915Z,1009.37
2017-04-10T11:14:26.834Z,1009.44
2017-04-10T11:15:36.441Z,1009.42
2017-04-10T11:16:46.358Z,1009.43
2017-04-10T11:17:55.976Z,1009.54
2017-04-10T11:19:04.961Z,1009.55
2017-04-10T11:20:14.876Z,1009.44
2017-04-10T11:21:24.793Z,1009.39
2017-04-10T11:22:34.093Z,1009.48
2017-04-10T11:23:44.008Z,1009.53
2017-04-10T11:24:53.926Z,1009.58
2017-04-10T11:26:04.162Z,1009.59
2017-04-10T11:27:13.449Z,1009.61
2017-04-10T11:28:23.678Z,1009.67
2017-04-10T11:29:33.603Z,1009.71
2017-04-10T11:30:43.220Z,1009.77
2017-04-10T11:31:53.458Z,1009.8
2017-04-10T11:33:03.382Z,1009.74
2017-04-10T11:34:13.308Z,1009.75
2017-04-10T11:35:23.230Z,1009.74
2017-04-10T11:36:33.517Z,1009.83
2017-04-10T11:37:43.129Z,1009.91
2017-04-10T11:38:53.359Z,1009.84
2017-04-10T11:40:02.960Z,1009.94
2017-04-10T11:41:12.882Z,1009.97
2017-04-10T11:42:23.119Z,1010.03
2017-04-10T11:43:33.351Z,1009.93
2017-04-10T11:44:43.265Z,1009.96
2017-04-10T11:45:52.287Z,1010.06
2017-04-10T11:47:02.660Z,1010.19
2017-04-10T11:48:13.992Z,1010.19
2017-04-10T11:49:25.145Z,1010.2
2017-04-10T11:50:35.838Z,1010.23
2017-04-10T11:51:45.520Z,1010.23
2017-04-10T11:52:56.022Z,1010.24
2017-04-10T11:54:06.281Z,1010.23
2017-04-10T11:55:16.331Z,1010.29
2017-04-10T11:56:27.425Z,1010.23
2017-04-10T11:57:37.344Z,1010.3
2017-04-10T11:58:47.576Z,1010.38
2017-04-10T11:59:57.498Z,1010.46
2017-04-10T12:01:07.739Z,1010.31
2017-04-10T12:02:17.342Z,1010.32
2017-04-10T12:03:27.080Z,1010.37
2017-04-10T12:04:38.357Z,1010.39
2017-04-10T12:05:49.287Z,1010.34
2017-04-10T12:06:59.482Z,1010.39
2017-04-10T12:08:09.422Z,1010.42
2017-04-10T12:09:19.361Z,1010.45
2017-04-10T12:10:29.605Z,1010.58
2017-04-10T12:11:38.901Z,1010.49
2017-04-10T12:12:49.184Z,1010.43
2017-04-10T12:13:59.418Z,1010.51
2017-04-10T12:15:09.661Z,1010.42
2017-04-10T12:16:19.901Z,1010.52
2017-04-10T12:17:30.140Z,1010.49
2017-04-10T12:18:40.373Z,1010.6
2017-04-10T12:19:50.608Z,1010.73
2017-04-10T12:21:00.530Z,1010.69
2017-04-10T12:22:10.769Z,1010.63
2017-04-10T12:23:21.014Z,1010.62
2017-04-10T12:24:30.940Z,1010.78
2017-04-10T12:25:40.277Z,1010.59
2017-04-10T12:26:50.512Z,1010.82
2017-04-10T12:28:00.747Z,1010.72
2017-04-10T12:29:10.356Z,1010.75
2017-04-10T12:30:20.588Z,1010.72
2017-04-10T12:31:30.525Z,1010.71
2017-04-10T12:32:40.764Z,1010.73
2017-04-10T12:33:51.000Z,1010.76
2017-04-10T12:35:00.919Z,1011.04
2017-04-10T12:36:10.839Z,1010.77
2017-04-10T12:37:20.450Z,1010.81
2017-04-10T12:38:30.366Z,1010.76
2017-04-10T12:39:39.977Z,1010.79
2017-04-10T12:40:49.589Z,1010.87
2017-04-10T12:41:59.820Z,1010.93
2017-04-10T12:43:10.058Z,1010.92
2017-04-10T12:44:20.294Z,1010.93
2017-04-10T12:45:30.215Z,1010.97
2017-04-10T12:46:40.447Z,1010.92
2017-04-10T12:47:50.698Z,1010.9
2017-04-10T12:49:00.952Z,1010.93
2017-04-10T12:50:10.868Z,1011
2017-04-10T12:51:21.098Z,1010.99
2017-04-10T12:52:31.017Z,1011.02
2017-04-10T12:53:41.246Z,1011.07
2017-04-10T12:54:51.476Z,1011.03
2017-04-10T12:56:01.708Z,1011.09
2017-04-10T12:57:11.634Z,1011.07
2017-04-10T12:58:20.931Z,1011.09
2017-04-10T12:59:31.165Z,1011.11
2017-04-10T13:00:41.397Z,1011.13
2017-04-10T13:01:51.314Z,1011.16
2017-04-10T13:03:00.926Z,1011.18
2017-04-10T13:04:11.215Z,1011.15
2017-04-10T13:05:21.467Z,1011.2
2017-04-10T13:06:31.702Z,1011.3
2017-04-10T13:07:41.309Z,1011.22
2017-04-10T13:08:51.545Z,1011.21
2017-04-10T13:10:01.152Z,1011.18
2017-04-10T13:11:10.771Z,1011.27
2017-04-10T13:12:21.006Z,1011.2
2017-04-10T13:13:31.280Z,1011.2
2017-04-10T13:14:41.520Z,1011.33
2017-04-10T13:15:51.761Z,1011.22
2017-04-10T13:17:02.002Z,1011.21
2017-04-10T13:18:11.612Z,1011.2
2017-04-10T13:19:21.845Z,1011.1
2017-04-10T13:20:31.767Z,1011.15
2017-04-10T13:21:41.998Z,1011.21
2017-04-10T13:22:51.605Z,1011.15
2017-04-10T13:24:01.527Z,1011.14
2017-04-10T13:25:11.758Z,1011.16
2017-04-10T13:26:21.995Z,1011.21
2017-04-10T13:27:32.227Z,1011.2
2017-04-10T13:28:42.469Z,1011.11
2017-04-10T13:29:52.076Z,1011.16
2017-04-10T13:31:02.322Z,1011.24
2017-04-10T13:32:12.557Z,1011.24
2017-04-10T13:33:22.481Z,1011.31
2017-04-10T13:34:32.090Z,1011.34
2017-04-10T13:35:41.695Z,1011.3
2017-04-10T13:36:51.613Z,1011.38
2017-04-10T13:38:01.531Z,1011.37
2017-04-10T13:39:11.457Z,1011.4
2017-04-10T13:40:21.685Z,1011.55
2017-04-10T13:41:31.293Z,1011.48
2017-04-10T13:42:41.525Z,1011.39
2017-04-10T13:43:51.449Z,1011.43
2017-04-10T13:45:01.072Z,1011.5
2017-04-10T13:46:11.310Z,1011.54
2017-04-10T13:47:21.242Z,1011.63
2017-04-10T13:48:31.478Z,1011.51
2017-04-10T13:49:41.084Z,1011.58
2017-04-10T13:50:51.002Z,1011.64
2017-04-10T13:52:00.918Z,1011.59
2017-04-10T13:53:10.540Z,1011.56
2017-04-10T13:54:20.459Z,1011.68
2017-04-10T13:55:30.689Z,1011.72
2017-04-10T13:56:40.308Z,1011.61
2017-04-10T13:57:50.566Z,1011.71
2017-04-10T13:59:00.796Z,1011.69
2017-04-10T14:00:10.402Z,1011.64
2017-04-10T14:01:20.022Z,1011.75
2017-04-10T14:02:30.260Z,1011.72
2017-04-10T14:03:40.188Z,1011.77
2017-04-10T14:04:50.107Z,1011.7
2017-04-10T14:06:00.026Z,1011.73
2017-04-10T14:07:09.955Z,1011.7
2017-04-10T14:08:19.563Z,1011.75
2017-04-10T14:09:29.177Z,1011.88